sensor_id;sensor_type;location;lat;lon;timestamp;temperature;humidity
5130;DHT22;2583;50.946;6.954;2022-07-10T00:00:08;15.80;90.50
5130;DHT22;2583;50.946;6.954;2022-07-10T00:02:39;15.80;97.80
5130;DHT22;2583;50.946;6.954;2022-07-10T00:05:08;15.70;99.90
5130;DHT22;2583;50.946;6.954;2022-07-10T00:07:35;15.70;99.90
5130;DHT22;2583;50.946;6.954;2022-07-10T00:10:05;15.70;99.90
5130;DHT22;2583;50.946;6.954;2022-07-10T00:12:33;15.60;99.90
5130;DHT22;2583;50.946;6.954;2022-07-10T00:14:59;15.50;99.90
5130;DHT22;2583;50.946;6.954;2022-07-10T00:17:26;15.50;99.90
5130;DHT22;2583;50.946;6.954;2022-07-10T00:19:53;15.40;99.90
5130;DHT22;2583;50.946;6.954;2022-07-10T00:22:21;15.40;99.90
5130;DHT22;2583;50.946;6.954;2022-07-10T00:24:48;15.30;99.90
5130;DHT22;2583;50.946;6.954;2022-07-10T00:27:17;15.20;1.00
5130;DHT22;2583;50.946;6.954;2022-07-10T00:29:44;15.10;1.00
5130;DHT22;2583;50.946;6.954;2022-07-10T00:32:11;15.10;1.00
5130;DHT22;2583;50.946;6.954;2022-07-10T00:34:38;15.00;1.00
5130;DHT22;2583;50.946;6.954;2022-07-10T00:37:05;15.00;1.00
5130;DHT22;2583;50.946;6.954;2022-07-10T00:39:32;15.00;1.00
5130;DHT22;2583;50.946;6.954;2022-07-10T00:42:07;14.90;1.00
5130;DHT22;2583;50.946;6.954;2022-07-10T00:44:34;14.90;53.50
5130;DHT22;2583;50.946;6.954;2022-07-10T00:47:06;14.80;90.20
5130;DHT22;2583;50.946;6.954;2022-07-10T00:49:34;14.80;99.90
5130;DHT22;2583;50.946;6.954;2022-07-10T00:52:04;14.70;99.90
5130;DHT22;2583;50.946;6.954;2022-07-10T00:54:33;14.60;99.90
5130;DHT22;2583;50.946;6.954;2022-07-10T00:57:03;14.60;99.90
5130;DHT22;2583;50.946;6.954;2022-07-10T00:59:30;14.60;99.90
5130;DHT22;2583;50.946;6.954;2022-07-10T01:01:57;14.50;99.90
5130;DHT22;2583;50.946;6.954;2022-07-10T01:04:24;14.40;99.90
5130;DHT22;2583;50.946;6.954;2022-07-10T01:06:51;14.40;1.00
5130;DHT22;2583;50.946;6.954;2022-07-10T01:09:18;14.40;1.00
5130;DHT22;2583;50.946;6.954;2022-07-10T01:11:45;14.30;1.00
5130;DHT22;2583;50.946;6.954;2022-07-10T01:14:13;14.40;1.00
5130;DHT22;2583;50.946;6.954;2022-07-10T01:16:42;14.30;1.00
5130;DHT22;2583;50.946;6.954;2022-07-10T01:19:09;14.30;1.00
5130;DHT22;2583;50.946;6.954;2022-07-10T01:21:36;14.20;1.00
5130;DHT22;2583;50.946;6.954;2022-07-10T01:24:06;14.20;1.00
5130;DHT22;2583;50.946;6.954;2022-07-10T01:26:34;14.20;1.00
5130;DHT22;2583;50.946;6.954;2022-07-10T01:29:06;14.20;1.00
5130;DHT22;2583;50.946;6.954;2022-07-10T01:31:33;14.10;1.00
5130;DHT22;2583;50.946;6.954;2022-07-10T01:34:04;14.10;99.90
5130;DHT22;2583;50.946;6.954;2022-07-10T01:36:31;14.10;99.90
5130;DHT22;2583;50.946;6.954;2022-07-10T01:38:59;14.10;99.90
5130;DHT22;2583;50.946;6.954;2022-07-10T01:41:26;14.10;99.90
5130;DHT22;2583;50.946;6.954;2022-07-10T01:43:53;14.10;99.90
5130;DHT22;2583;50.946;6.954;2022-07-10T01:46:20;14.10;99.90
5130;DHT22;2583;50.946;6.954;2022-07-10T01:48:48;14.20;99.90
5130;DHT22;2583;50.946;6.954;2022-07-10T01:51:15;14.20;98.30
5130;DHT22;2583;50.946;6.954;2022-07-10T01:53:42;14.20;52.20
5130;DHT22;2583;50.946;6.954;2022-07-10T01:56:11;14.20;29.10
5130;DHT22;2583;50.946;6.954;2022-07-10T01:58:39;14.30;21.00
5130;DHT22;2583;50.946;6.954;2022-07-10T02:01:07;14.30;15.20
5130;DHT22;2583;50.946;6.954;2022-07-10T02:03:35;14.30;21.30
5130;DHT22;2583;50.946;6.954;2022-07-10T02:06:20;14.40;1.00
5130;DHT22;2583;50.946;6.954;2022-07-10T02:08:47;14.40;1.00
5130;DHT22;2583;50.946;6.954;2022-07-10T02:11:14;14.40;44.90
5130;DHT22;2583;50.946;6.954;2022-07-10T02:13:41;14.30;1.00
5130;DHT22;2583;50.946;6.954;2022-07-10T02:16:08;14.40;1.00
5130;DHT22;2583;50.946;6.954;2022-07-10T02:18:35;14.50;1.00
5130;DHT22;2583;50.946;6.954;2022-07-10T02:21:02;14.60;1.00
5130;DHT22;2583;50.946;6.954;2022-07-10T02:23:29;14.70;1.00
5130;DHT22;2583;50.946;6.954;2022-07-10T02:25:56;14.70;99.90
5130;DHT22;2583;50.946;6.954;2022-07-10T02:28:23;14.70;99.90
5130;DHT22;2583;50.946;6.954;2022-07-10T02:30:50;14.70;99.90
5130;DHT22;2583;50.946;6.954;2022-07-10T02:33:16;14.70;1.00
5130;DHT22;2583;50.946;6.954;2022-07-10T02:35:43;14.70;1.00
5130;DHT22;2583;50.946;6.954;2022-07-10T02:38:10;14.60;1.00
5130;DHT22;2583;50.946;6.954;2022-07-10T02:40:37;14.60;1.00
5130;DHT22;2583;50.946;6.954;2022-07-10T02:43:04;14.60;1.00
5130;DHT22;2583;50.946;6.954;2022-07-10T02:45:31;14.60;1.00
5130;DHT22;2583;50.946;6.954;2022-07-10T02:47:57;14.60;1.00
5130;DHT22;2583;50.946;6.954;2022-07-10T02:50:24;14.70;1.00
5130;DHT22;2583;50.946;6.954;2022-07-10T02:52:51;14.80;1.00
5130;DHT22;2583;50.946;6.954;2022-07-10T02:55:18;14.90;1.00
5130;DHT22;2583;50.946;6.954;2022-07-10T02:57:44;14.80;1.00
5130;DHT22;2583;50.946;6.954;2022-07-10T03:00:12;14.70;1.00
5130;DHT22;2583;50.946;6.954;2022-07-10T03:02:38;14.60;1.00
5130;DHT22;2583;50.946;6.954;2022-07-10T03:05:06;14.50;1.00
5130;DHT22;2583;50.946;6.954;2022-07-10T03:07:33;14.50;1.00
5130;DHT22;2583;50.946;6.954;2022-07-10T03:09:59;14.50;1.00
5130;DHT22;2583;50.946;6.954;2022-07-10T03:12:26;14.50;1.00
5130;DHT22;2583;50.946;6.954;2022-07-10T03:14:53;14.50;1.00
5130;DHT22;2583;50.946;6.954;2022-07-10T03:17:20;14.60;1.00
5130;DHT22;2583;50.946;6.954;2022-07-10T03:19:46;14.60;1.00
5130;DHT22;2583;50.946;6.954;2022-07-10T03:22:13;14.60;1.00
5130;DHT22;2583;50.946;6.954;2022-07-10T03:24:40;14.70;1.00
5130;DHT22;2583;50.946;6.954;2022-07-10T03:27:09;14.70;1.00
5130;DHT22;2583;50.946;6.954;2022-07-10T03:29:36;14.70;1.00
5130;DHT22;2583;50.946;6.954;2022-07-10T03:32:04;14.70;1.00
5130;DHT22;2583;50.946;6.954;2022-07-10T03:34:30;14.60;1.00
5130;DHT22;2583;50.946;6.954;2022-07-10T03:36:59;14.60;1.00
5130;DHT22;2583;50.946;6.954;2022-07-10T03:39:27;14.60;1.00
5130;DHT22;2583;50.946;6.954;2022-07-10T03:41:53;14.70;1.00
5130;DHT22;2583;50.946;6.954;2022-07-10T03:44:20;14.60;1.00
5130;DHT22;2583;50.946;6.954;2022-07-10T03:46:47;14.60;99.90
5130;DHT22;2583;50.946;6.954;2022-07-10T03:49:14;14.60;28.50
5130;DHT22;2583;50.946;6.954;2022-07-10T03:51:41;14.60;99.90
5130;DHT22;2583;50.946;6.954;2022-07-10T03:54:08;14.60;99.90
5130;DHT22;2583;50.946;6.954;2022-07-10T03:56:35;14.60;1.00
5130;DHT22;2583;50.946;6.954;2022-07-10T03:59:20;14.50;99.90
5130;DHT22;2583;50.946;6.954;2022-07-10T04:01:47;14.50;99.90
5130;DHT22;2583;50.946;6.954;2022-07-10T04:04:14;14.60;99.90
5130;DHT22;2583;50.946;6.954;2022-07-10T04:06:41;14.60;99.90
5130;DHT22;2583;50.946;6.954;2022-07-10T04:09:08;14.60;99.90
5130;DHT22;2583;50.946;6.954;2022-07-10T04:11:34;14.60;99.90
5130;DHT22;2583;50.946;6.954;2022-07-10T04:14:01;14.60;99.90
5130;DHT22;2583;50.946;6.954;2022-07-10T04:16:28;14.60;99.90
5130;DHT22;2583;50.946;6.954;2022-07-10T04:18:55;14.70;99.90
5130;DHT22;2583;50.946;6.954;2022-07-10T04:21:22;14.70;99.90
5130;DHT22;2583;50.946;6.954;2022-07-10T04:23:48;14.60;99.90
5130;DHT22;2583;50.946;6.954;2022-07-10T04:26:15;14.60;99.90
5130;DHT22;2583;50.946;6.954;2022-07-10T04:28:42;14.70;99.90
5130;DHT22;2583;50.946;6.954;2022-07-10T04:31:09;14.70;99.90
5130;DHT22;2583;50.946;6.954;2022-07-10T04:33:36;14.70;99.90
5130;DHT22;2583;50.946;6.954;2022-07-10T04:36:02;14.70;99.90
5130;DHT22;2583;50.946;6.954;2022-07-10T04:38:29;14.60;1.00
5130;DHT22;2583;50.946;6.954;2022-07-10T04:40:58;14.70;99.90
5130;DHT22;2583;50.946;6.954;2022-07-10T04:43:26;14.60;99.90
5130;DHT22;2583;50.946;6.954;2022-07-10T04:45:53;14.60;99.90
5130;DHT22;2583;50.946;6.954;2022-07-10T04:48:19;14.70;99.90
5130;DHT22;2583;50.946;6.954;2022-07-10T04:50:46;14.60;99.90
5130;DHT22;2583;50.946;6.954;2022-07-10T04:53:13;14.60;99.90
5130;DHT22;2583;50.946;6.954;2022-07-10T04:55:40;14.60;99.90
5130;DHT22;2583;50.946;6.954;2022-07-10T04:58:06;14.60;1.00
5130;DHT22;2583;50.946;6.954;2022-07-10T05:00:33;14.60;99.90
5130;DHT22;2583;50.946;6.954;2022-07-10T05:03:00;14.60;1.00
5130;DHT22;2583;50.946;6.954;2022-07-10T05:05:27;14.60;1.00
5130;DHT22;2583;50.946;6.954;2022-07-10T05:07:53;14.70;1.00
5130;DHT22;2583;50.946;6.954;2022-07-10T05:10:20;14.70;1.00
5130;DHT22;2583;50.946;6.954;2022-07-10T05:12:47;14.70;99.90
5130;DHT22;2583;50.946;6.954;2022-07-10T05:15:14;14.70;14.90
5130;DHT22;2583;50.946;6.954;2022-07-10T05:17:41;14.70;10.40
5130;DHT22;2583;50.946;6.954;2022-07-10T05:20:08;14.80;99.90
5130;DHT22;2583;50.946;6.954;2022-07-10T05:22:35;14.70;99.90
5130;DHT22;2583;50.946;6.954;2022-07-10T05:25:02;14.70;99.90
5130;DHT22;2583;50.946;6.954;2022-07-10T05:27:29;14.80;99.90
5130;DHT22;2583;50.946;6.954;2022-07-10T05:29:56;14.80;99.90
5130;DHT22;2583;50.946;6.954;2022-07-10T05:32:23;14.80;1.00
5130;DHT22;2583;50.946;6.954;2022-07-10T05:34:51;14.90;1.00
5130;DHT22;2583;50.946;6.954;2022-07-10T05:37:19;14.90;99.90
5130;DHT22;2583;50.946;6.954;2022-07-10T05:39:46;14.90;59.10
5130;DHT22;2583;50.946;6.954;2022-07-10T05:42:13;15.00;1.00
5130;DHT22;2583;50.946;6.954;2022-07-10T05:44:39;15.10;99.90
5130;DHT22;2583;50.946;6.954;2022-07-10T05:47:06;15.10;1.00
5130;DHT22;2583;50.946;6.954;2022-07-10T05:49:33;15.20;99.90
5130;DHT22;2583;50.946;6.954;2022-07-10T05:52:00;15.30;99.90
5130;DHT22;2583;50.946;6.954;2022-07-10T05:54:27;15.30;99.90
5130;DHT22;2583;50.946;6.954;2022-07-10T05:56:54;15.40;99.90
5130;DHT22;2583;50.946;6.954;2022-07-10T05:59:20;15.50;99.90
5130;DHT22;2583;50.946;6.954;2022-07-10T06:01:47;15.60;99.90
5130;DHT22;2583;50.946;6.954;2022-07-10T06:04:14;15.60;93.30
5130;DHT22;2583;50.946;6.954;2022-07-10T06:06:41;15.60;1.00
5130;DHT22;2583;50.946;6.954;2022-07-10T06:09:08;15.70;99.90
5130;DHT22;2583;50.946;6.954;2022-07-10T06:11:35;15.70;99.90
5130;DHT22;2583;50.946;6.954;2022-07-10T06:14:02;15.80;99.90
5130;DHT22;2583;50.946;6.954;2022-07-10T06:16:29;15.90;99.90
5130;DHT22;2583;50.946;6.954;2022-07-10T06:18:55;16.00;99.90
5130;DHT22;2583;50.946;6.954;2022-07-10T06:21:26;16.10;90.40
5130;DHT22;2583;50.946;6.954;2022-07-10T06:23:53;16.20;46.70
5130;DHT22;2583;50.946;6.954;2022-07-10T06:26:20;16.30;65.00
5130;DHT22;2583;50.946;6.954;2022-07-10T06:28:46;16.50;33.30
5130;DHT22;2583;50.946;6.954;2022-07-10T06:31:13;16.60;1.00
5130;DHT22;2583;50.946;6.954;2022-07-10T06:33:40;16.60;1.00
5130;DHT22;2583;50.946;6.954;2022-07-10T06:36:07;16.60;1.00
5130;DHT22;2583;50.946;6.954;2022-07-10T06:38:34;16.70;1.00
5130;DHT22;2583;50.946;6.954;2022-07-10T06:41:01;16.70;1.00
5130;DHT22;2583;50.946;6.954;2022-07-10T06:43:28;16.80;1.00
5130;DHT22;2583;50.946;6.954;2022-07-10T06:45:55;16.90;1.00
5130;DHT22;2583;50.946;6.954;2022-07-10T06:48:23;17.10;1.00
5130;DHT22;2583;50.946;6.954;2022-07-10T06:50:50;17.10;1.00
5130;DHT22;2583;50.946;6.954;2022-07-10T06:53:17;17.20;1.00
5130;DHT22;2583;50.946;6.954;2022-07-10T06:55:44;17.30;1.00
5130;DHT22;2583;50.946;6.954;2022-07-10T06:58:11;17.40;1.00
5130;DHT22;2583;50.946;6.954;2022-07-10T07:00:37;17.30;1.00
5130;DHT22;2583;50.946;6.954;2022-07-10T07:03:04;17.20;1.00
5130;DHT22;2583;50.946;6.954;2022-07-10T07:05:31;17.00;1.00
5130;DHT22;2583;50.946;6.954;2022-07-10T07:07:58;17.00;1.00
5130;DHT22;2583;50.946;6.954;2022-07-10T07:10:25;16.90;29.80
5130;DHT22;2583;50.946;6.954;2022-07-10T07:12:51;16.80;64.70
5130;DHT22;2583;50.946;6.954;2022-07-10T07:15:18;16.70;99.90
5130;DHT22;2583;50.946;6.954;2022-07-10T07:17:47;16.70;81.00
5130;DHT22;2583;50.946;6.954;2022-07-10T07:20:25;16.60;38.70
5130;DHT22;2583;50.946;6.954;2022-07-10T07:23:10;16.60;7.60
5130;DHT22;2583;50.946;6.954;2022-07-10T07:25:40;16.70;9.80
5130;DHT22;2583;50.946;6.954;2022-07-10T07:28:10;16.90;5.60
5130;DHT22;2583;50.946;6.954;2022-07-10T07:30:37;16.90;1.00
5130;DHT22;2583;50.946;6.954;2022-07-10T07:33:04;16.90;1.00
5130;DHT22;2583;50.946;6.954;2022-07-10T07:35:31;17.00;1.00
5130;DHT22;2583;50.946;6.954;2022-07-10T07:37:58;17.10;1.00
5130;DHT22;2583;50.946;6.954;2022-07-10T07:40:25;17.10;1.00
5130;DHT22;2583;50.946;6.954;2022-07-10T07:42:53;17.10;1.00
5130;DHT22;2583;50.946;6.954;2022-07-10T07:45:20;17.10;1.00
5130;DHT22;2583;50.946;6.954;2022-07-10T07:47:51;17.00;1.00
5130;DHT22;2583;50.946;6.954;2022-07-10T07:50:26;17.10;1.00
5130;DHT22;2583;50.946;6.954;2022-07-10T07:52:53;17.10;1.00
5130;DHT22;2583;50.946;6.954;2022-07-10T07:55:21;17.00;5.10
5130;DHT22;2583;50.946;6.954;2022-07-10T07:57:54;17.00;18.40
5130;DHT22;2583;50.946;6.954;2022-07-10T08:00:23;17.00;8.30
5130;DHT22;2583;50.946;6.954;2022-07-10T08:02:51;17.10;18.00
5130;DHT22;2583;50.946;6.954;2022-07-10T08:05:19;17.10;21.90
5130;DHT22;2583;50.946;6.954;2022-07-10T08:07:51;17.10;23.20
5130;DHT22;2583;50.946;6.954;2022-07-10T08:10:20;17.10;13.10
5130;DHT22;2583;50.946;6.954;2022-07-10T08:12:47;17.10;29.50
5130;DHT22;2583;50.946;6.954;2022-07-10T08:15:17;17.20;34.60
5130;DHT22;2583;50.946;6.954;2022-07-10T08:17:48;17.20;7.10
5130;DHT22;2583;50.946;6.954;2022-07-10T08:20:16;17.20;28.90
5130;DHT22;2583;50.946;6.954;2022-07-10T08:22:44;17.30;1.00
5130;DHT22;2583;50.946;6.954;2022-07-10T08:25:10;17.20;18.90
5130;DHT22;2583;50.946;6.954;2022-07-10T08:27:37;17.30;26.40
5130;DHT22;2583;50.946;6.954;2022-07-10T08:30:05;17.30;37.60
5130;DHT22;2583;50.946;6.954;2022-07-10T08:32:32;17.20;69.70
5130;DHT22;2583;50.946;6.954;2022-07-10T08:34:59;17.30;63.50
5130;DHT22;2583;50.946;6.954;2022-07-10T08:37:26;17.50;28.30
5130;DHT22;2583;50.946;6.954;2022-07-10T08:39:53;17.60;15.30
5130;DHT22;2583;50.946;6.954;2022-07-10T08:42:20;17.80;1.00
5130;DHT22;2583;50.946;6.954;2022-07-10T08:44:47;17.80;1.00
5130;DHT22;2583;50.946;6.954;2022-07-10T08:47:15;17.70;1.00
5130;DHT22;2583;50.946;6.954;2022-07-10T08:49:48;17.70;1.00
5130;DHT22;2583;50.946;6.954;2022-07-10T08:52:32;17.80;1.00
5130;DHT22;2583;50.946;6.954;2022-07-10T08:55:00;17.70;1.00
5130;DHT22;2583;50.946;6.954;2022-07-10T08:57:26;17.60;1.00
5130;DHT22;2583;50.946;6.954;2022-07-10T08:59:56;17.60;1.00
5130;DHT22;2583;50.946;6.954;2022-07-10T09:02:23;17.50;1.00
5130;DHT22;2583;50.946;6.954;2022-07-10T09:04:50;17.50;1.00
5130;DHT22;2583;50.946;6.954;2022-07-10T09:07:16;17.60;1.00
5130;DHT22;2583;50.946;6.954;2022-07-10T09:09:56;17.70;1.00
5130;DHT22;2583;50.946;6.954;2022-07-10T09:12:24;17.70;1.00
5130;DHT22;2583;50.946;6.954;2022-07-10T09:14:51;17.90;1.00
5130;DHT22;2583;50.946;6.954;2022-07-10T09:17:19;18.10;1.00
5130;DHT22;2583;50.946;6.954;2022-07-10T09:19:46;18.50;1.00
5130;DHT22;2583;50.946;6.954;2022-07-10T09:22:13;18.40;1.00
5130;DHT22;2583;50.946;6.954;2022-07-10T09:24:44;18.50;1.00
5130;DHT22;2583;50.946;6.954;2022-07-10T09:27:13;18.50;1.00
5130;DHT22;2583;50.946;6.954;2022-07-10T09:29:53;18.50;1.00
5130;DHT22;2583;50.946;6.954;2022-07-10T09:32:24;18.40;1.00
5130;DHT22;2583;50.946;6.954;2022-07-10T09:34:52;18.20;1.00
5130;DHT22;2583;50.946;6.954;2022-07-10T09:37:42;18.10;1.00
5130;DHT22;2583;50.946;6.954;2022-07-10T09:40:10;18.30;1.00
5130;DHT22;2583;50.946;6.954;2022-07-10T09:42:39;18.40;1.00
5130;DHT22;2583;50.946;6.954;2022-07-10T09:47:54;18.30;1.00
5130;DHT22;2583;50.946;6.954;2022-07-10T09:52:56;18.50;1.00
5130;DHT22;2583;50.946;6.954;2022-07-10T09:55:25;18.70;1.00
5130;DHT22;2583;50.946;6.954;2022-07-10T10:00:40;19.00;1.00
5130;DHT22;2583;50.946;6.954;2022-07-10T10:03:10;18.70;1.00
5130;DHT22;2583;50.946;6.954;2022-07-10T10:05:55;18.50;1.00
5130;DHT22;2583;50.946;6.954;2022-07-10T10:08:27;18.30;1.00
5130;DHT22;2583;50.946;6.954;2022-07-10T10:10:57;18.10;1.00
5130;DHT22;2583;50.946;6.954;2022-07-10T10:13:26;17.90;35.10
5130;DHT22;2583;50.946;6.954;2022-07-10T10:15:57;18.10;23.10
5130;DHT22;2583;50.946;6.954;2022-07-10T10:18:25;18.10;32.70
5130;DHT22;2583;50.946;6.954;2022-07-10T10:20:55;18.00;38.20
5130;DHT22;2583;50.946;6.954;2022-07-10T10:23:23;17.90;47.30
5130;DHT22;2583;50.946;6.954;2022-07-10T10:25:53;17.90;70.70
5130;DHT22;2583;50.946;6.954;2022-07-10T10:28:24;17.80;90.20
5130;DHT22;2583;50.946;6.954;2022-07-10T10:31:01;17.70;99.90
5130;DHT22;2583;50.946;6.954;2022-07-10T10:36:11;17.70;99.90
5130;DHT22;2583;50.946;6.954;2022-07-10T10:46:58;18.50;21.40
5130;DHT22;2583;50.946;6.954;2022-07-10T10:49:52;18.80;1.00
5130;DHT22;2583;50.946;6.954;2022-07-10T10:52:20;19.20;1.00
5130;DHT22;2583;50.946;6.954;2022-07-10T11:00:04;19.10;1.00
5130;DHT22;2583;50.946;6.954;2022-07-10T11:02:37;18.90;1.00
5130;DHT22;2583;50.946;6.954;2022-07-10T11:15:28;19.40;1.00
5130;DHT22;2583;50.946;6.954;2022-07-10T11:17:57;19.30;1.00
5130;DHT22;2583;50.946;6.954;2022-07-10T11:20:24;19.00;1.00
5130;DHT22;2583;50.946;6.954;2022-07-10T11:25:49;18.70;16.60
5130;DHT22;2583;50.946;6.954;2022-07-10T11:31:01;18.70;33.90
5130;DHT22;2583;50.946;6.954;2022-07-10T11:33:28;18.70;47.70
5130;DHT22;2583;50.946;6.954;2022-07-10T11:35:55;18.70;58.10
5130;DHT22;2583;50.946;6.954;2022-07-10T11:38:24;18.60;26.10
5130;DHT22;2583;50.946;6.954;2022-07-10T11:40:52;18.30;99.90
5130;DHT22;2583;50.946;6.954;2022-07-10T11:43:22;18.30;99.90
5130;DHT22;2583;50.946;6.954;2022-07-10T11:45:51;18.20;99.90
5130;DHT22;2583;50.946;6.954;2022-07-10T11:48:21;18.20;99.90
5130;DHT22;2583;50.946;6.954;2022-07-10T11:50:48;18.10;99.90
5130;DHT22;2583;50.946;6.954;2022-07-10T11:53:23;18.10;99.90
5130;DHT22;2583;50.946;6.954;2022-07-10T11:55:50;18.10;99.90
5130;DHT22;2583;50.946;6.954;2022-07-10T11:58:20;18.10;99.90
5130;DHT22;2583;50.946;6.954;2022-07-10T12:01:04;18.20;99.90
5130;DHT22;2583;50.946;6.954;2022-07-10T12:03:33;18.20;99.90
5130;DHT22;2583;50.946;6.954;2022-07-10T12:06:06;18.10;99.90
5130;DHT22;2583;50.946;6.954;2022-07-10T12:08:46;18.00;1.00
5130;DHT22;2583;50.946;6.954;2022-07-10T12:11:18;18.00;1.00
5130;DHT22;2583;50.946;6.954;2022-07-10T12:13:46;17.90;1.00
5130;DHT22;2583;50.946;6.954;2022-07-10T12:16:14;17.90;1.00
5130;DHT22;2583;50.946;6.954;2022-07-10T12:18:41;18.00;1.00
5130;DHT22;2583;50.946;6.954;2022-07-10T12:21:11;18.00;1.00
5130;DHT22;2583;50.946;6.954;2022-07-10T12:23:39;18.00;1.00
5130;DHT22;2583;50.946;6.954;2022-07-10T12:26:09;18.00;1.00
5130;DHT22;2583;50.946;6.954;2022-07-10T12:28:54;18.00;99.90
5130;DHT22;2583;50.946;6.954;2022-07-10T12:31:28;18.00;1.00
5130;DHT22;2583;50.946;6.954;2022-07-10T12:33:57;17.90;99.90
5130;DHT22;2583;50.946;6.954;2022-07-10T12:39:21;17.90;99.90
5130;DHT22;2583;50.946;6.954;2022-07-10T12:42:01;17.80;1.00
5130;DHT22;2583;50.946;6.954;2022-07-10T12:47:15;18.10;1.00
5130;DHT22;2583;50.946;6.954;2022-07-10T12:52:29;18.50;99.90
5130;DHT22;2583;50.946;6.954;2022-07-10T12:55:20;18.70;99.90
5130;DHT22;2583;50.946;6.954;2022-07-10T12:58:00;18.70;99.90
5130;DHT22;2583;50.946;6.954;2022-07-10T13:00:32;18.70;99.90
5130;DHT22;2583;50.946;6.954;2022-07-10T13:03:04;18.70;99.90
5130;DHT22;2583;50.946;6.954;2022-07-10T13:05:39;18.60;99.90
5130;DHT22;2583;50.946;6.954;2022-07-10T13:08:24;18.70;99.90
5130;DHT22;2583;50.946;6.954;2022-07-10T13:10:58;18.70;99.90
5130;DHT22;2583;50.946;6.954;2022-07-10T13:13:25;18.80;99.90
5130;DHT22;2583;50.946;6.954;2022-07-10T13:15:52;18.80;99.90
5130;DHT22;2583;50.946;6.954;2022-07-10T13:18:26;18.80;99.90
5130;DHT22;2583;50.946;6.954;2022-07-10T13:20:55;18.60;99.90
5130;DHT22;2583;50.946;6.954;2022-07-10T13:23:27;18.70;1.00
5130;DHT22;2583;50.946;6.954;2022-07-10T13:25:55;18.70;99.90
5130;DHT22;2583;50.946;6.954;2022-07-10T13:28:22;18.80;99.90
5130;DHT22;2583;50.946;6.954;2022-07-10T13:30:50;18.90;99.90
5130;DHT22;2583;50.946;6.954;2022-07-10T13:33:17;18.90;99.90
5130;DHT22;2583;50.946;6.954;2022-07-10T13:35:44;19.10;99.90
5130;DHT22;2583;50.946;6.954;2022-07-10T13:38:11;19.00;99.90
5130;DHT22;2583;50.946;6.954;2022-07-10T13:40:43;19.10;99.90
5130;DHT22;2583;50.946;6.954;2022-07-10T13:43:11;19.10;99.90
5130;DHT22;2583;50.946;6.954;2022-07-10T13:45:39;19.10;99.90
5130;DHT22;2583;50.946;6.954;2022-07-10T13:48:13;19.10;99.90
5130;DHT22;2583;50.946;6.954;2022-07-10T13:50:41;19.10;99.90
5130;DHT22;2583;50.946;6.954;2022-07-10T13:53:09;19.00;99.90
5130;DHT22;2583;50.946;6.954;2022-07-10T13:55:36;19.00;99.90
5130;DHT22;2583;50.946;6.954;2022-07-10T13:58:04;19.20;99.90
5130;DHT22;2583;50.946;6.954;2022-07-10T14:00:31;19.50;55.50
5130;DHT22;2583;50.946;6.954;2022-07-10T14:02:58;19.80;25.10
5130;DHT22;2583;50.946;6.954;2022-07-10T14:05:27;20.20;1.00
5130;DHT22;2583;50.946;6.954;2022-07-10T14:07:54;20.40;1.00
5130;DHT22;2583;50.946;6.954;2022-07-10T14:10:21;21.10;1.00
5130;DHT22;2583;50.946;6.954;2022-07-10T14:12:48;21.70;1.00
5130;DHT22;2583;50.946;6.954;2022-07-10T14:15:15;22.10;72.00
5130;DHT22;2583;50.946;6.954;2022-07-10T14:17:42;22.20;71.70
5130;DHT22;2583;50.946;6.954;2022-07-10T14:20:10;22.10;66.00
5130;DHT22;2583;50.946;6.954;2022-07-10T14:22:38;21.80;70.40
5130;DHT22;2583;50.946;6.954;2022-07-10T14:25:06;21.70;73.30
5130;DHT22;2583;50.946;6.954;2022-07-10T14:27:35;21.80;66.80
5130;DHT22;2583;50.946;6.954;2022-07-10T14:30:03;21.90;63.90
5130;DHT22;2583;50.946;6.954;2022-07-10T14:32:30;21.80;65.50
5130;DHT22;2583;50.946;6.954;2022-07-10T14:34:57;21.90;64.00
5130;DHT22;2583;50.946;6.954;2022-07-10T14:37:23;21.80;63.10
5130;DHT22;2583;50.946;6.954;2022-07-10T14:39:50;21.60;66.30
5130;DHT22;2583;50.946;6.954;2022-07-10T14:42:17;21.40;70.70
5130;DHT22;2583;50.946;6.954;2022-07-10T14:44:44;21.30;72.50
5130;DHT22;2583;50.946;6.954;2022-07-10T14:47:11;21.10;72.10
5130;DHT22;2583;50.946;6.954;2022-07-10T14:49:38;21.00;74.80
5130;DHT22;2583;50.946;6.954;2022-07-10T14:52:05;20.80;1.00
5130;DHT22;2583;50.946;6.954;2022-07-10T14:54:32;20.60;1.00
5130;DHT22;2583;50.946;6.954;2022-07-10T14:56:59;20.50;1.00
5130;DHT22;2583;50.946;6.954;2022-07-10T14:59:29;20.40;1.00
5130;DHT22;2583;50.946;6.954;2022-07-10T15:01:56;20.30;1.00
5130;DHT22;2583;50.946;6.954;2022-07-10T15:04:24;20.20;1.00
5130;DHT22;2583;50.946;6.954;2022-07-10T15:06:51;20.20;1.00
5130;DHT22;2583;50.946;6.954;2022-07-10T15:09:18;20.20;1.00
5130;DHT22;2583;50.946;6.954;2022-07-10T15:11:45;20.20;1.00
5130;DHT22;2583;50.946;6.954;2022-07-10T15:14:12;20.20;1.00
5130;DHT22;2583;50.946;6.954;2022-07-10T15:16:39;20.10;1.00
5130;DHT22;2583;50.946;6.954;2022-07-10T15:19:06;20.10;1.00
5130;DHT22;2583;50.946;6.954;2022-07-10T15:21:35;20.00;1.00
5130;DHT22;2583;50.946;6.954;2022-07-10T15:24:02;20.00;1.00
5130;DHT22;2583;50.946;6.954;2022-07-10T15:26:29;19.90;1.00
5130;DHT22;2583;50.946;6.954;2022-07-10T15:28:55;19.90;1.00
5130;DHT22;2583;50.946;6.954;2022-07-10T15:31:25;19.90;1.00
5130;DHT22;2583;50.946;6.954;2022-07-10T15:33:52;19.90;1.00
5130;DHT22;2583;50.946;6.954;2022-07-10T15:36:19;19.80;1.00
5130;DHT22;2583;50.946;6.954;2022-07-10T15:38:48;19.80;1.00
5130;DHT22;2583;50.946;6.954;2022-07-10T15:41:15;19.80;1.00
5130;DHT22;2583;50.946;6.954;2022-07-10T15:43:41;19.80;1.00
5130;DHT22;2583;50.946;6.954;2022-07-10T15:46:10;19.80;1.00
5130;DHT22;2583;50.946;6.954;2022-07-10T15:48:41;19.90;1.00
5130;DHT22;2583;50.946;6.954;2022-07-10T15:51:08;19.90;1.00
5130;DHT22;2583;50.946;6.954;2022-07-10T15:53:35;19.90;1.00
5130;DHT22;2583;50.946;6.954;2022-07-10T15:56:03;19.90;1.00
5130;DHT22;2583;50.946;6.954;2022-07-10T15:58:30;19.90;1.00
5130;DHT22;2583;50.946;6.954;2022-07-10T16:00:56;19.90;1.00
5130;DHT22;2583;50.946;6.954;2022-07-10T16:03:23;20.00;1.00
5130;DHT22;2583;50.946;6.954;2022-07-10T16:05:50;20.00;1.00
5130;DHT22;2583;50.946;6.954;2022-07-10T16:08:17;20.00;1.00
5130;DHT22;2583;50.946;6.954;2022-07-10T16:10:48;20.00;1.00
5130;DHT22;2583;50.946;6.954;2022-07-10T16:13:15;19.90;1.00
5130;DHT22;2583;50.946;6.954;2022-07-10T16:15:42;19.90;1.00
5130;DHT22;2583;50.946;6.954;2022-07-10T16:18:09;19.80;1.00
5130;DHT22;2583;50.946;6.954;2022-07-10T16:20:37;19.80;1.00
5130;DHT22;2583;50.946;6.954;2022-07-10T16:23:04;19.90;1.00
5130;DHT22;2583;50.946;6.954;2022-07-10T16:25:31;19.80;1.00
5130;DHT22;2583;50.946;6.954;2022-07-10T16:28:17;19.90;1.00
5130;DHT22;2583;50.946;6.954;2022-07-10T16:30:45;19.90;1.00
5130;DHT22;2583;50.946;6.954;2022-07-10T16:33:12;19.90;1.00
5130;DHT22;2583;50.946;6.954;2022-07-10T16:35:40;20.00;1.00
5130;DHT22;2583;50.946;6.954;2022-07-10T16:38:06;20.10;1.00
5130;DHT22;2583;50.946;6.954;2022-07-10T16:40:34;20.10;1.00
5130;DHT22;2583;50.946;6.954;2022-07-10T16:43:01;20.20;1.00
5130;DHT22;2583;50.946;6.954;2022-07-10T16:45:28;20.30;1.00
5130;DHT22;2583;50.946;6.954;2022-07-10T16:47:55;20.40;1.00
5130;DHT22;2583;50.946;6.954;2022-07-10T16:50:23;20.40;1.00
5130;DHT22;2583;50.946;6.954;2022-07-10T16:52:50;20.40;1.00
5130;DHT22;2583;50.946;6.954;2022-07-10T16:55:17;20.40;1.00
5130;DHT22;2583;50.946;6.954;2022-07-10T16:57:44;20.40;1.00
5130;DHT22;2583;50.946;6.954;2022-07-10T17:00:11;20.30;1.00
5130;DHT22;2583;50.946;6.954;2022-07-10T17:02:38;20.30;1.00
5130;DHT22;2583;50.946;6.954;2022-07-10T17:05:06;20.30;1.00